Easter Island, Chile

11:35 PM -06 on 六月 27, 2017 (GMT -0600)
Mataveri International | | Change Station

高度 167 ft 27.15 °S, 109.42 °W | Updated 35 minutes ago

所により曇
所により曇
66 °F
体感気温 66 °F
4
風 変数 風 から 東北東

今日
高い -- | 低 -- °F
--% 降水確率
昨日
高い -- | 低 -- °F
Precip. -- インチ
気圧 30.24 インチ
視程 6.2 マイル
わずか 2000 ft
やや曇 25000 ft
露点温度 61 °F
湿度 83%
降水 0.00 インチ
積雪深 利用不可。
8:07 AM 6:33 PM
三日月, 22% visible
METAR SCIP 280500Z 06003KT 360V130 9999 FEW020 SCT250 19/16 Q1024 NOSIG
気圧 30.24 インチ
視程 6.2 マイル
わずか 2000 ft
やや曇 25000 ft
露点温度 61 °F
湿度 83%
降水 0.00 インチ
積雪深 利用不可。
8:07 AM 6:33 PM
三日月, 22% visible
METAR SCIP 280500Z 06003KT 360V130 9999 FEW020 SCT250 19/16 Q1024 NOSIG

Get Severe Weather Alerts

Thanks for signing up!

Be on the lookout for a verification email in your inbox.

You'll start receiving the daily forecast at 6 AM.

×

10-Day Weather Forecast

No radar image for this location.
×

Almanac

天文

Jun. 27, 2017 入り
実時間
常用薄明
航海薄明
天文薄明
可視光の長さ
可照時間
Tomorrow will be .
, % of the Moon is Illuminated

今日の極値

Country Highs Country Lows

Community

Category 6

Welcome to Category 6. This is the collective home for Weather Underground's featured writeups by Dr. Jeff Masters (right), Bob Henson (left), Chris Burt, and other regular contributors.

Nearby

空気品質

  空気品質 大気質指数 汚染物質
Not available.

積雪深

Station Depth 高度

地震活動

Distance Mag. Time & Date
Minimum magnitude displayed is 2.5.

沿岸の水温

地名 気温

Stations

最寄りの気象観測所

観測所位置 温度 体感気温(寒さ) 露点温度 湿度 Precip. 高度 更新日時 タイプする